createdAt,value
2023-02-15T00:01:23.673Z,62.20
2023-02-15T00:03:53.422Z,63.60
2023-02-15T00:06:22.731Z,63.98
2023-02-15T00:08:52.478Z,63.70
2023-02-15T00:11:23.369Z,62.70
2023-02-15T00:13:52.863Z,61.80
2023-02-15T00:16:22.117Z,65.05
2023-02-15T00:18:53.561Z,64.03
2023-02-15T00:21:22.798Z,64.50
2023-02-15T00:23:52.528Z,60.55
2023-02-15T00:26:21.792Z,63.80
2023-02-15T00:28:52.012Z,61.85
2023-02-15T00:31:22.131Z,64.03
2023-02-15T00:33:51.508Z,62.40
2023-02-15T00:36:21.180Z,62.43
2023-02-15T00:38:51.260Z,60.17
2023-02-15T00:41:20.518Z,63.50
2023-02-15T00:43:49.805Z,60.75
2023-02-15T00:46:19.223Z,59.58
2023-02-15T00:48:49.119Z,63.00
2023-02-15T00:51:19.069Z,63.30
2023-02-15T00:53:48.613Z,62.20
2023-02-15T00:56:18.307Z,62.55
2023-02-15T00:58:47.968Z,59.23
2023-02-15T01:01:19.813Z,61.48
2023-02-15T01:03:49.842Z,60.92
2023-02-15T01:06:19.826Z,60.95
2023-02-15T01:08:49.781Z,60.83
2023-02-15T01:11:23.649Z,59.98
2023-02-15T01:13:58.174Z,60.23
2023-02-15T01:16:29.058Z,62.03
2023-02-15T01:18:59.128Z,59.93
2023-02-15T01:21:28.882Z,61.15
2023-02-15T01:23:58.366Z,60.38
2023-02-15T01:26:27.675Z,61.92
2023-02-15T01:28:56.930Z,59.40
2023-02-15T01:31:26.372Z,59.88
2023-02-15T01:33:56.181Z,59.03
2023-02-15T01:36:25.482Z,57.88
2023-02-15T01:38:56.498Z,59.13
2023-02-15T01:41:28.242Z,61.65
2023-02-15T01:43:59.850Z,60.50
2023-02-15T01:46:35.172Z,60.08
2023-02-15T01:49:13.771Z,58.87
2023-02-15T01:51:45.340Z,60.88
2023-02-15T01:54:20.940Z,63.52
2023-02-15T01:56:50.584Z,58.70
2023-02-15T01:59:22.442Z,61.40
2023-02-15T02:01:55.987Z,61.13
2023-02-15T02:04:39.134Z,63.45
2023-02-15T02:07:10.060Z,60.38
2023-02-15T02:09:40.431Z,58.40
2023-02-15T02:12:10.466Z,58.25
2023-02-15T02:14:42.461Z,60.45
2023-02-15T02:17:39.775Z,57.60
2023-02-15T02:20:25.048Z,56.18
2023-02-15T02:23:17.625Z,58.00
2023-02-15T02:26:13.165Z,60.90
2023-02-15T02:28:46.113Z,57.70
2023-02-15T02:31:18.683Z,58.55
2023-02-15T02:34:03.602Z,59.25
2023-02-15T02:36:45.007Z,58.45
2023-02-15T02:39:32.488Z,60.80
2023-02-15T02:42:16.236Z,61.50
2023-02-15T02:44:48.091Z,59.30
2023-02-15T02:47:23.741Z,60.48
2023-02-15T02:50:05.592Z,61.20
2023-02-15T02:52:46.806Z,60.85
2023-02-15T02:55:34.741Z,60.58
2023-02-15T02:58:24.257Z,60.98
2023-02-15T03:01:07.427Z,58.75
2023-02-15T03:03:42.580Z,57.80
2023-02-15T03:06:24.763Z,59.18
2023-02-15T03:09:00.120Z,59.95
2023-02-15T03:11:29.704Z,58.75
2023-02-15T03:13:59.717Z,59.67
2023-02-15T03:16:30.273Z,59.88
2023-02-15T03:19:02.903Z,59.95
2023-02-15T03:21:36.268Z,61.42
2023-02-15T03:24:16.488Z,60.35
2023-02-15T03:26:48.151Z,61.80
2023-02-15T03:29:18.786Z,59.77
2023-02-15T03:31:51.050Z,60.30
2023-02-15T03:37:08.341Z,59.42
2023-02-15T03:39:49.909Z,58.92
2023-02-15T03:42:35.784Z,60.23
2023-02-15T03:45:11.224Z,59.45
2023-02-15T03:47:43.669Z,61.10
2023-02-15T03:53:02.546Z,55.52
2023-02-15T03:55:31.967Z,60.95
2023-02-15T03:58:19.490Z,61.45
2023-02-15T04:01:09.649Z,59.27
2023-02-15T04:03:44.905Z,60.58
2023-02-15T04:06:14.192Z,61.00
2023-02-15T04:09:01.576Z,58.60
2023-02-15T04:11:31.052Z,58.78
2023-02-15T04:14:01.919Z,59.83
2023-02-15T04:16:31.420Z,61.48
2023-02-15T04:19:18.546Z,61.23
2023-02-15T04:22:05.708Z,61.48
2023-02-15T04:24:52.771Z,59.03
2023-02-15T04:27:22.220Z,59.45
2023-02-15T04:29:51.497Z,60.28
2023-02-15T04:32:20.921Z,59.85
2023-02-15T04:34:50.191Z,62.35
2023-02-15T04:37:19.760Z,62.05
2023-02-15T04:39:50.689Z,61.25
2023-02-15T04:42:19.942Z,63.35
2023-02-15T04:44:49.200Z,60.90
2023-02-15T04:47:18.798Z,61.70
2023-02-15T04:49:48.123Z,61.13
2023-02-15T04:52:19.400Z,62.53
2023-02-15T04:54:49.650Z,62.33
2023-02-15T04:57:18.854Z,61.77
2023-02-15T04:59:48.170Z,59.27
2023-02-15T05:02:17.818Z,59.77
2023-02-15T05:04:47.102Z,61.35
2023-02-15T05:07:16.684Z,59.40
2023-02-15T05:09:45.994Z,58.73
2023-02-15T05:12:15.409Z,59.83
2023-02-15T05:14:44.660Z,58.38
2023-02-15T05:17:13.920Z,57.40
2023-02-15T05:19:43.168Z,59.75
2023-02-15T05:22:12.484Z,59.93
2023-02-15T05:24:59.732Z,57.25
2023-02-15T05:27:47.041Z,58.28
2023-02-15T05:30:16.701Z,56.98
2023-02-15T05:32:46.169Z,58.50
2023-02-15T05:35:17.463Z,58.23
2023-02-15T05:37:46.687Z,58.87
2023-02-15T05:40:16.216Z,58.90
2023-02-15T05:42:45.429Z,58.42
2023-02-15T05:45:15.151Z,60.17
2023-02-15T05:47:45.137Z,60.35
2023-02-15T05:50:14.543Z,57.98
2023-02-15T05:52:44.274Z,59.33
2023-02-15T05:55:13.657Z,61.23
2023-02-15T05:57:42.928Z,62.48
2023-02-15T06:00:14.941Z,62.25
2023-02-15T06:02:44.415Z,59.77
2023-02-15T06:05:13.794Z,63.52
2023-02-15T06:07:45.818Z,59.83
2023-02-15T06:10:15.469Z,62.30
2023-02-15T06:12:46.408Z,62.43
2023-02-15T06:15:16.078Z,64.92
2023-02-15T06:17:45.678Z,66.20
2023-02-15T06:20:15.365Z,66.85
2023-02-15T06:22:44.583Z,68.33
2023-02-15T06:25:13.837Z,67.87
2023-02-15T06:27:45.805Z,70.20
2023-02-15T06:30:15.879Z,69.12
2023-02-15T06:32:45.302Z,67.92
2023-02-15T06:35:14.565Z,69.30
2023-02-15T06:37:43.853Z,69.87
2023-02-15T06:40:13.995Z,70.20
2023-02-15T06:42:44.788Z,72.55
2023-02-15T06:45:14.200Z,71.20
2023-02-15T06:47:43.618Z,70.42
2023-02-15T06:50:13.600Z,71.20
2023-02-15T06:52:42.850Z,71.80
2023-02-15T06:55:12.240Z,72.87
2023-02-15T06:57:41.486Z,72.05
2023-02-15T07:00:11.908Z,73.00
2023-02-15T07:02:41.166Z,71.45
2023-02-15T07:05:10.891Z,71.37
2023-02-15T07:07:40.166Z,70.30
2023-02-15T07:10:10.009Z,73.02
2023-02-15T07:12:46.670Z,71.45
2023-02-15T07:15:18.414Z,75.15
2023-02-15T07:17:47.920Z,78.75
2023-02-15T07:20:24.364Z,80.47
2023-02-15T07:22:53.753Z,75.80
2023-02-15T07:25:23.005Z,77.27
2023-02-15T07:28:00.228Z,77.17
2023-02-15T07:30:30.096Z,75.55
2023-02-15T07:33:18.687Z,76.42
2023-02-15T07:35:58.011Z,74.42
2023-02-15T07:38:35.606Z,75.52
2023-02-15T07:41:07.500Z,76.90
2023-02-15T07:43:39.237Z,80.30
2023-02-15T07:48:40.719Z,78.37
2023-02-15T07:51:11.918Z,79.00
2023-02-15T07:53:41.872Z,79.05
2023-02-15T07:56:15.109Z,78.60
2023-02-15T07:58:53.478Z,80.75
2023-02-15T08:01:28.252Z,78.35
2023-02-15T08:03:58.330Z,80.57
2023-02-15T08:06:30.546Z,80.10
2023-02-15T08:08:59.803Z,80.32
2023-02-15T08:11:34.213Z,77.17
2023-02-15T08:14:12.240Z,78.35
2023-02-15T08:16:50.120Z,81.25
2023-02-15T08:19:25.659Z,78.30
2023-02-15T08:21:59.163Z,76.22
2023-02-15T08:24:31.933Z,72.62
2023-02-15T08:27:05.094Z,75.22
2023-02-15T08:29:36.354Z,75.00
2023-02-15T08:32:08.266Z,73.72
2023-02-15T08:34:40.737Z,74.80
2023-02-15T08:39:39.111Z,69.42
2023-02-15T08:42:08.637Z,74.85
2023-02-15T08:44:38.180Z,73.72
2023-02-15T08:47:07.576Z,70.90
2023-02-15T08:49:36.818Z,69.62
2023-02-15T08:52:06.160Z,65.52
2023-02-15T08:54:35.789Z,62.20
2023-02-15T08:57:05.743Z,57.27
2023-02-15T08:59:35.218Z,52.75
2023-02-15T09:02:04.529Z,46.50
2023-02-15T09:04:34.150Z,43.25
2023-02-15T09:07:05.042Z,37.83
2023-02-15T09:09:34.584Z,36.38
2023-02-15T09:12:03.909Z,35.25
2023-02-15T09:14:33.477Z,34.00
2023-02-15T09:17:03.090Z,33.67
2023-02-15T09:19:32.339Z,33.13
2023-02-15T09:22:01.976Z,35.00
2023-02-15T09:24:34.797Z,32.90
2023-02-15T09:27:04.185Z,32.78
2023-02-15T09:29:33.555Z,33.20
2023-02-15T09:32:02.968Z,32.00
2023-02-15T09:34:34.158Z,31.93
2023-02-15T09:37:03.917Z,32.90
2023-02-15T09:39:35.154Z,32.08
2023-02-15T09:42:24.329Z,32.28
2023-02-15T09:45:04.557Z,32.28
2023-02-15T09:47:56.681Z,31.00
2023-02-15T09:50:53.580Z,33.20
2023-02-15T09:53:41.270Z,31.87
2023-02-15T09:56:25.573Z,31.80
2023-02-15T09:59:17.632Z,31.70
2023-02-15T10:01:53.036Z,31.53
2023-02-15T10:05:01.454Z,30.90
2023-02-15T10:07:39.510Z,31.17
2023-02-15T10:10:19.040Z,30.50
2023-02-15T10:13:11.376Z,31.10
2023-02-15T10:16:04.383Z,32.05
2023-02-15T10:21:19.698Z,31.40
2023-02-15T10:24:25.392Z,31.10
2023-02-15T10:26:57.215Z,32.42
2023-02-15T10:29:38.243Z,32.17
2023-02-15T10:32:25.690Z,31.87
2023-02-15T10:35:03.655Z,31.48
2023-02-15T10:37:36.106Z,31.37
2023-02-15T10:40:30.041Z,30.92
2023-02-15T10:43:14.564Z,31.77
2023-02-15T10:45:57.884Z,32.05
2023-02-15T10:48:35.573Z,31.17
2023-02-15T10:51:05.971Z,32.33
2023-02-15T10:53:41.350Z,32.33
2023-02-15T10:56:22.346Z,30.68
2023-02-15T10:59:03.197Z,31.75
2023-02-15T11:01:53.750Z,31.57
2023-02-15T11:04:42.391Z,30.97
2023-02-15T11:07:23.861Z,30.43
2023-02-15T11:10:05.565Z,31.30
2023-02-15T11:12:35.716Z,30.12
2023-02-15T11:15:22.180Z,31.17
2023-02-15T11:18:07.202Z,30.27
2023-02-15T11:20:39.855Z,31.70
2023-02-15T11:23:16.911Z,31.02
2023-02-15T11:25:48.392Z,30.08
2023-02-15T11:28:29.748Z,30.95
2023-02-15T11:31:01.310Z,30.25
2023-02-15T11:33:36.915Z,29.45
2023-02-15T11:36:21.301Z,30.52
2023-02-15T11:38:53.680Z,31.15
2023-02-15T11:41:26.034Z,29.77
2023-02-15T11:44:10.126Z,30.80
2023-02-15T11:46:39.819Z,29.95
2023-02-15T11:49:30.224Z,30.27
2023-02-15T11:52:00.164Z,30.23
2023-02-15T11:54:33.147Z,30.00
2023-02-15T11:57:23.157Z,30.35
2023-02-15T12:00:02.172Z,30.48
2023-02-15T12:02:35.454Z,30.70
2023-02-15T12:05:10.932Z,31.07
2023-02-15T12:07:49.186Z,30.30
2023-02-15T12:10:30.337Z,30.20
2023-02-15T12:13:17.207Z,31.12
2023-02-15T12:15:51.023Z,28.92
2023-02-15T12:18:40.281Z,29.00
2023-02-15T12:21:12.890Z,29.50
2023-02-15T12:26:36.389Z,27.50
2023-02-15T12:29:19.257Z,27.60
2023-02-15T12:31:51.722Z,28.67
2023-02-15T12:36:57.872Z,28.30
2023-02-15T12:39:28.985Z,28.65
2023-02-15T12:42:01.861Z,27.00
2023-02-15T12:44:34.654Z,28.47
2023-02-15T12:47:10.050Z,28.95
2023-02-15T12:49:40.504Z,29.05
2023-02-15T12:52:23.958Z,29.20
2023-02-15T12:54:53.762Z,29.82
2023-02-15T12:57:32.354Z,28.55
2023-02-15T13:00:04.960Z,27.75
2023-02-15T13:05:27.227Z,28.00
2023-02-15T13:07:59.116Z,29.48
2023-02-15T13:10:31.004Z,29.05
2023-02-15T13:13:00.695Z,30.43
2023-02-15T13:15:38.568Z,30.15
2023-02-15T13:18:11.428Z,29.87
2023-02-15T13:20:41.881Z,30.62
2023-02-15T13:23:19.874Z,31.57
2023-02-15T13:25:51.569Z,29.30
2023-02-15T13:28:22.584Z,29.87
2023-02-15T13:30:53.246Z,29.15
2023-02-15T13:33:39.418Z,31.02
2023-02-15T13:36:15.926Z,30.72
2023-02-15T13:38:54.997Z,31.48
2023-02-15T13:41:27.717Z,31.55
2023-02-15T13:44:24.617Z,31.45
2023-02-15T13:47:12.494Z,30.82
2023-02-15T13:49:53.857Z,31.33
2023-02-15T13:52:25.577Z,30.90
2023-02-15T13:55:24.928Z,32.13
2023-02-15T13:58:09.184Z,31.65
2023-02-15T14:00:47.424Z,31.95
2023-02-15T14:03:31.952Z,32.10
2023-02-15T14:06:31.509Z,33.60
2023-02-15T14:09:13.217Z,32.28
2023-02-15T14:11:57.516Z,32.88
2023-02-15T14:14:40.569Z,33.50
2023-02-15T14:17:35.130Z,33.73
2023-02-15T14:20:10.821Z,35.10
2023-02-15T14:22:49.267Z,32.38
2023-02-15T14:25:33.308Z,32.33
2023-02-15T14:28:11.753Z,32.67
2023-02-15T14:30:43.534Z,33.00
2023-02-15T14:33:35.918Z,32.88
2023-02-15T14:36:07.620Z,33.02
2023-02-15T14:38:54.839Z,32.23
2023-02-15T14:41:30.049Z,31.65
2023-02-15T14:44:05.740Z,31.90
2023-02-15T14:46:41.161Z,32.05
2023-02-15T14:49:28.823Z,32.85
2023-02-15T14:52:00.445Z,32.75
2023-02-15T14:54:34.478Z,31.63
2023-02-15T14:57:11.044Z,33.33
2023-02-15T14:59:49.564Z,32.80
2023-02-15T15:02:27.445Z,32.03
2023-02-15T15:05:06.410Z,30.50
2023-02-15T15:07:47.948Z,30.72
2023-02-15T15:10:21.545Z,32.17
2023-02-15T15:12:51.785Z,32.05
2023-02-15T15:15:33.590Z,31.35
2023-02-15T15:18:09.881Z,30.53
2023-02-15T15:20:51.886Z,30.97
2023-02-15T15:23:23.696Z,30.55
2023-02-15T15:26:02.303Z,29.92
2023-02-15T15:28:41.029Z,29.70
2023-02-15T15:31:26.117Z,31.02
2023-02-15T15:34:17.809Z,31.52
2023-02-15T15:36:56.020Z,30.75
2023-02-15T15:39:46.554Z,32.17
2023-02-15T15:42:35.808Z,34.18
2023-02-15T15:45:20.805Z,31.07
2023-02-15T15:48:28.020Z,32.17
2023-02-15T15:51:00.706Z,31.87
2023-02-15T15:53:33.552Z,31.85
2023-02-15T15:56:07.934Z,31.20
2023-02-15T15:58:37.385Z,32.80
2023-02-15T16:01:13.384Z,32.30
2023-02-15T16:03:51.117Z,30.77
2023-02-15T16:06:32.269Z,31.20
2023-02-15T16:09:13.637Z,30.95
2023-02-15T16:11:43.201Z,30.80
2023-02-15T16:14:15.621Z,30.90
2023-02-15T16:16:51.551Z,31.07
2023-02-15T16:19:24.317Z,30.25
2023-02-15T16:21:53.638Z,31.05
2023-02-15T16:24:59.866Z,32.90
2023-02-15T16:27:43.050Z,30.52
2023-02-15T16:30:29.908Z,30.82
2023-02-15T16:33:08.349Z,28.80
2023-02-15T16:35:39.798Z,30.10
2023-02-15T16:38:11.732Z,29.20
2023-02-15T16:40:47.178Z,30.27
2023-02-15T16:43:19.027Z,31.17
2023-02-15T16:45:48.545Z,30.90
2023-02-15T16:48:23.422Z,30.23
2023-02-15T16:50:58.623Z,30.52
2023-02-15T16:53:29.595Z,30.45
2023-02-15T16:56:04.382Z,31.07
2023-02-15T16:58:39.346Z,31.23
2023-02-15T17:01:10.646Z,30.32
2023-02-15T17:03:41.417Z,30.35
2023-02-15T17:06:27.843Z,30.90
2023-02-15T17:09:05.640Z,31.25
2023-02-15T17:11:40.602Z,31.27
2023-02-15T17:14:14.671Z,30.57
2023-02-15T17:16:47.468Z,30.40
2023-02-15T17:19:32.222Z,31.52
2023-02-15T17:22:07.821Z,31.73
2023-02-15T17:24:39.763Z,32.28
2023-02-15T17:27:23.267Z,31.85
2023-02-15T17:29:54.754Z,32.30
2023-02-15T17:32:27.093Z,32.42
2023-02-15T17:35:11.340Z,32.75
2023-02-15T17:37:44.481Z,32.85
2023-02-15T17:40:29.060Z,32.45
2023-02-15T17:42:58.661Z,31.48
2023-02-15T17:45:33.488Z,31.75
2023-02-15T17:48:05.436Z,32.13
2023-02-15T17:50:35.007Z,33.10
2023-02-15T17:53:04.721Z,32.75
2023-02-15T17:55:38.409Z,33.65
2023-02-15T17:58:11.385Z,35.48
2023-02-15T18:01:04.202Z,32.33
2023-02-15T18:04:04.155Z,32.55
2023-02-15T18:06:52.237Z,33.95
2023-02-15T18:09:40.884Z,33.25
2023-02-15T18:12:28.422Z,33.53
2023-02-15T18:14:59.112Z,33.38
2023-02-15T18:17:42.758Z,33.70
2023-02-15T18:20:24.573Z,33.02
2023-02-15T18:22:54.361Z,31.48
2023-02-15T18:25:25.768Z,32.85
2023-02-15T18:27:55.589Z,33.20
2023-02-15T18:30:27.096Z,31.48
2023-02-15T18:32:57.856Z,33.88
2023-02-15T18:35:29.895Z,33.65
2023-02-15T18:38:00.190Z,33.18
2023-02-15T18:40:30.866Z,34.88
2023-02-15T18:43:00.144Z,35.10
2023-02-15T18:45:32.502Z,34.23
2023-02-15T18:48:01.929Z,34.13
2023-02-15T18:50:34.600Z,33.83
2023-02-15T18:53:05.517Z,33.40
2023-02-15T18:55:35.550Z,32.88
2023-02-15T18:58:05.218Z,33.02
2023-02-15T19:00:36.691Z,32.58
2023-02-15T19:03:06.666Z,33.63
2023-02-15T19:05:36.215Z,33.63
2023-02-15T19:08:06.198Z,33.92
2023-02-15T19:10:35.780Z,34.40
2023-02-15T19:13:07.114Z,34.13
2023-02-15T19:15:36.349Z,34.08
2023-02-15T19:18:06.336Z,34.13
2023-02-15T19:20:46.357Z,33.35
2023-02-15T19:23:21.204Z,34.27
2023-02-15T19:25:51.382Z,32.90
2023-02-15T19:28:24.228Z,34.27
2023-02-15T19:30:53.923Z,32.78
2023-02-15T19:33:24.057Z,35.40
2023-02-15T19:35:56.827Z,34.03
2023-02-15T19:38:31.510Z,35.03
2023-02-15T19:41:09.286Z,33.35
2023-02-15T19:43:38.666Z,34.98
2023-02-15T19:46:10.017Z,35.23
2023-02-15T19:48:39.239Z,33.23
2023-02-15T19:51:09.674Z,35.75
2023-02-15T19:53:38.960Z,36.10
2023-02-15T19:56:17.679Z,37.03
2023-02-15T19:58:48.551Z,34.60
2023-02-15T20:01:18.307Z,35.38
2023-02-15T20:03:47.584Z,35.13
2023-02-15T20:06:17.163Z,34.63
2023-02-15T20:08:46.849Z,33.88
2023-02-15T20:11:16.184Z,34.78
2023-02-15T20:13:45.502Z,34.73
2023-02-15T20:16:15.200Z,35.08
2023-02-15T20:18:46.526Z,35.00
2023-02-15T20:21:17.570Z,35.70
2023-02-15T20:23:47.080Z,36.60
2023-02-15T20:26:18.829Z,35.17
2023-02-15T20:28:48.841Z,35.07
2023-02-15T20:31:20.793Z,38.30
2023-02-15T20:33:50.793Z,41.65
2023-02-15T20:36:22.333Z,40.12
2023-02-15T20:38:52.181Z,39.23
2023-02-15T20:41:39.309Z,39.48
2023-02-15T20:44:29.441Z,38.28
2023-02-15T20:47:01.601Z,38.58
2023-02-15T20:49:31.012Z,38.60
2023-02-15T20:52:02.014Z,39.18
2023-02-15T20:54:33.938Z,38.13
2023-02-15T20:57:05.407Z,37.93
2023-02-15T20:59:37.833Z,37.73
2023-02-15T21:02:19.151Z,39.27
2023-02-15T21:04:48.495Z,39.23
2023-02-15T21:07:22.634Z,39.08
2023-02-15T21:09:53.529Z,37.75
2023-02-15T21:12:23.691Z,38.88
2023-02-15T21:14:53.014Z,38.30
2023-02-15T21:17:23.494Z,40.45
2023-02-15T21:19:52.785Z,39.58
2023-02-15T21:22:23.344Z,39.83
2023-02-15T21:24:55.074Z,37.73
2023-02-15T21:27:24.665Z,39.23
2023-02-15T21:29:54.330Z,40.28
2023-02-15T21:32:24.070Z,39.20
2023-02-15T21:34:54.034Z,41.63
2023-02-15T21:37:34.179Z,41.15
2023-02-15T21:40:05.468Z,38.33
2023-02-15T21:42:52.782Z,40.73
2023-02-15T21:45:40.350Z,39.55
2023-02-15T21:48:10.109Z,43.95
2023-02-15T21:50:58.408Z,41.88
2023-02-15T21:53:36.495Z,40.50
2023-02-15T21:56:07.985Z,38.83
2023-02-15T21:58:37.828Z,38.15
2023-02-15T22:01:08.098Z,40.80
2023-02-15T22:03:39.642Z,39.35
2023-02-15T22:06:11.019Z,39.45
2023-02-15T22:08:48.290Z,40.15
2023-02-15T22:11:25.605Z,39.05
2023-02-15T22:13:55.240Z,39.98
2023-02-15T22:16:26.757Z,40.30
2023-02-15T22:19:19.639Z,38.00
2023-02-15T22:21:51.796Z,40.30
2023-02-15T22:24:22.132Z,40.55
2023-02-15T22:26:52.939Z,38.55
2023-02-15T22:29:23.980Z,39.38
2023-02-15T22:31:55.183Z,40.40
2023-02-15T22:34:29.666Z,40.78
2023-02-15T22:36:59.981Z,40.75
2023-02-15T22:39:42.705Z,40.33
2023-02-15T22:42:27.147Z,39.70
2023-02-15T22:44:58.128Z,41.48
2023-02-15T22:47:29.886Z,39.92
2023-02-15T22:49:59.156Z,41.18
2023-02-15T22:52:28.551Z,41.15
2023-02-15T22:54:57.754Z,40.67
2023-02-15T22:57:31.792Z,41.30
2023-02-15T23:00:01.411Z,40.10
2023-02-15T23:02:30.807Z,39.15
2023-02-15T23:05:00.215Z,39.78
2023-02-15T23:07:29.690Z,40.78
2023-02-15T23:09:59.391Z,41.10
2023-02-15T23:12:35.038Z,40.48
2023-02-15T23:15:04.414Z,42.23
2023-02-15T23:17:33.897Z,40.25
2023-02-15T23:20:03.107Z,41.42
2023-02-15T23:22:32.498Z,40.20
2023-02-15T23:25:01.714Z,40.75
2023-02-15T23:27:50.884Z,40.75
2023-02-15T23:30:20.449Z,40.67
2023-02-15T23:32:50.277Z,41.83
2023-02-15T23:35:20.725Z,42.33
2023-02-15T23:37:50.119Z,42.53
2023-02-15T23:40:39.639Z,42.53
2023-02-15T23:43:12.291Z,42.67
2023-02-15T23:45:41.759Z,42.23
2023-02-15T23:48:32.376Z,41.95
2023-02-15T23:51:02.251Z,43.08
2023-02-15T23:53:33.488Z,42.20
2023-02-15T23:56:03.384Z,42.90
2023-02-15T23:58:41.438Z,42.70
